sensor_id;sensor_type;location;lat;lon;timestamp;temperature;humidity
792;DHT22;379;49.022;12.148;2023-06-22T00:01:12;16.70;99.90
792;DHT22;379;49.022;12.148;2023-06-22T00:03:39;16.70;99.90
792;DHT22;379;49.022;12.148;2023-06-22T00:06:06;16.70;99.90
792;DHT22;379;49.022;12.148;2023-06-22T00:08:32;16.80;99.90
792;DHT22;379;49.022;12.148;2023-06-22T00:11:00;16.70;99.90
792;DHT22;379;49.022;12.148;2023-06-22T00:13:27;16.70;99.90
792;DHT22;379;49.022;12.148;2023-06-22T00:15:54;16.70;99.90
792;DHT22;379;49.022;12.148;2023-06-22T00:18:20;16.70;99.90
792;DHT22;379;49.022;12.148;2023-06-22T00:20:47;16.70;99.90
792;DHT22;379;49.022;12.148;2023-06-22T00:23:14;16.60;99.90
792;DHT22;379;49.022;12.148;2023-06-22T00:25:41;16.60;99.90
792;DHT22;379;49.022;12.148;2023-06-22T00:28:09;16.60;99.90
792;DHT22;379;49.022;12.148;2023-06-22T00:30:36;16.50;99.90
792;DHT22;379;49.022;12.148;2023-06-22T00:33:03;16.50;99.90
792;DHT22;379;49.022;12.148;2023-06-22T00:35:33;16.50;99.90
792;DHT22;379;49.022;12.148;2023-06-22T00:38:00;16.60;99.90
792;DHT22;379;49.022;12.148;2023-06-22T00:40:29;16.60;99.90
792;DHT22;379;49.022;12.148;2023-06-22T00:42:56;16.60;99.90
792;DHT22;379;49.022;12.148;2023-06-22T00:45:24;16.60;99.90
792;DHT22;379;49.022;12.148;2023-06-22T00:47:52;16.60;99.90
792;DHT22;379;49.022;12.148;2023-06-22T00:50:22;16.60;99.90
792;DHT22;379;49.022;12.148;2023-06-22T00:52:51;16.60;99.90
792;DHT22;379;49.022;12.148;2023-06-22T00:55:18;16.60;99.90
792;DHT22;379;49.022;12.148;2023-06-22T00:57:46;16.60;99.90
792;DHT22;379;49.022;12.148;2023-06-22T01:00:14;16.50;99.90
792;DHT22;379;49.022;12.148;2023-06-22T01:02:44;16.40;99.90
792;DHT22;379;49.022;12.148;2023-06-22T01:05:12;16.40;99.90
792;DHT22;379;49.022;12.148;2023-06-22T01:07:43;16.40;99.90
792;DHT22;379;49.022;12.148;2023-06-22T01:10:18;16.40;99.90
792;DHT22;379;49.022;12.148;2023-06-22T01:12:52;16.40;99.90
792;DHT22;379;49.022;12.148;2023-06-22T01:15:25;16.30;99.90
792;DHT22;379;49.022;12.148;2023-06-22T01:17:56;16.30;99.90
792;DHT22;379;49.022;12.148;2023-06-22T01:20:25;16.30;99.90
792;DHT22;379;49.022;12.148;2023-06-22T01:23:05;16.30;99.90
792;DHT22;379;49.022;12.148;2023-06-22T01:25:39;16.20;99.90
792;DHT22;379;49.022;12.148;2023-06-22T01:28:20;16.20;99.90
792;DHT22;379;49.022;12.148;2023-06-22T01:30:51;16.20;99.90
792;DHT22;379;49.022;12.148;2023-06-22T01:33:29;16.20;99.90
792;DHT22;379;49.022;12.148;2023-06-22T01:35:57;16.40;99.90
792;DHT22;379;49.022;12.148;2023-06-22T01:38:25;16.40;99.90
792;DHT22;379;49.022;12.148;2023-06-22T01:40:52;16.40;99.90
792;DHT22;379;49.022;12.148;2023-06-22T01:43:20;16.40;99.90
792;DHT22;379;49.022;12.148;2023-06-22T01:45:50;16.40;99.90
792;DHT22;379;49.022;12.148;2023-06-22T01:48:17;16.40;99.90
792;DHT22;379;49.022;12.148;2023-06-22T01:50:45;16.40;99.90
792;DHT22;379;49.022;12.148;2023-06-22T01:53:12;16.50;99.90
792;DHT22;379;49.022;12.148;2023-06-22T01:55:39;16.50;99.90
792;DHT22;379;49.022;12.148;2023-06-22T01:58:05;16.60;99.90
792;DHT22;379;49.022;12.148;2023-06-22T02:00:34;16.60;99.90
792;DHT22;379;49.022;12.148;2023-06-22T02:03:10;16.60;99.90
792;DHT22;379;49.022;12.148;2023-06-22T02:05:42;16.60;99.90
792;DHT22;379;49.022;12.148;2023-06-22T02:08:12;16.50;99.90
792;DHT22;379;49.022;12.148;2023-06-22T02:10:43;16.40;99.90
792;DHT22;379;49.022;12.148;2023-06-22T02:13:11;16.40;99.90
792;DHT22;379;49.022;12.148;2023-06-22T02:15:39;16.40;99.90
792;DHT22;379;49.022;12.148;2023-06-22T02:18:08;16.40;99.90
792;DHT22;379;49.022;12.148;2023-06-22T02:20:36;16.30;99.90
792;DHT22;379;49.022;12.148;2023-06-22T02:23:03;16.30;99.90
792;DHT22;379;49.022;12.148;2023-06-22T02:25:31;16.30;99.90
792;DHT22;379;49.022;12.148;2023-06-22T02:27:58;16.40;99.90
792;DHT22;379;49.022;12.148;2023-06-22T02:30:25;16.40;99.90
792;DHT22;379;49.022;12.148;2023-06-22T02:32:52;16.40;99.90
792;DHT22;379;49.022;12.148;2023-06-22T02:35:25;16.40;99.90
792;DHT22;379;49.022;12.148;2023-06-22T02:37:52;16.30;99.90
792;DHT22;379;49.022;12.148;2023-06-22T02:40:19;16.30;99.90
792;DHT22;379;49.022;12.148;2023-06-22T02:42:46;16.30;99.90
792;DHT22;379;49.022;12.148;2023-06-22T02:45:13;16.30;99.90
792;DHT22;379;49.022;12.148;2023-06-22T02:47:40;16.20;99.90
792;DHT22;379;49.022;12.148;2023-06-22T02:50:07;16.20;99.90
792;DHT22;379;49.022;12.148;2023-06-22T02:52:35;16.30;99.90
792;DHT22;379;49.022;12.148;2023-06-22T02:55:02;16.30;99.90
792;DHT22;379;49.022;12.148;2023-06-22T02:57:29;16.20;99.90
792;DHT22;379;49.022;12.148;2023-06-22T02:59:56;16.20;99.90
792;DHT22;379;49.022;12.148;2023-06-22T03:02:23;16.10;99.90
792;DHT22;379;49.022;12.148;2023-06-22T03:04:51;16.10;99.90
792;DHT22;379;49.022;12.148;2023-06-22T03:07:19;16.10;99.90
792;DHT22;379;49.022;12.148;2023-06-22T03:09:47;16.10;99.90
792;DHT22;379;49.022;12.148;2023-06-22T03:12:14;16.10;99.90
792;DHT22;379;49.022;12.148;2023-06-22T03:14:40;16.10;99.90
792;DHT22;379;49.022;12.148;2023-06-22T03:17:08;16.10;99.90
792;DHT22;379;49.022;12.148;2023-06-22T03:19:36;16.10;99.90
792;DHT22;379;49.022;12.148;2023-06-22T03:22:03;16.10;99.90
792;DHT22;379;49.022;12.148;2023-06-22T03:24:30;16.10;99.90
792;DHT22;379;49.022;12.148;2023-06-22T03:26:58;16.10;99.90
792;DHT22;379;49.022;12.148;2023-06-22T03:29:25;16.10;99.90
792;DHT22;379;49.022;12.148;2023-06-22T03:31:52;16.10;99.90
792;DHT22;379;49.022;12.148;2023-06-22T03:34:19;16.10;99.90
792;DHT22;379;49.022;12.148;2023-06-22T03:36:45;16.20;99.90
792;DHT22;379;49.022;12.148;2023-06-22T03:39:12;16.20;99.90
792;DHT22;379;49.022;12.148;2023-06-22T03:41:39;16.20;99.90
792;DHT22;379;49.022;12.148;2023-06-22T03:44:07;16.20;99.90
792;DHT22;379;49.022;12.148;2023-06-22T03:46:37;16.30;99.90
792;DHT22;379;49.022;12.148;2023-06-22T03:49:04;16.30;99.90
792;DHT22;379;49.022;12.148;2023-06-22T03:51:32;16.40;99.90
792;DHT22;379;49.022;12.148;2023-06-22T03:53:59;16.40;99.90
792;DHT22;379;49.022;12.148;2023-06-22T03:56:26;16.50;99.90
792;DHT22;379;49.022;12.148;2023-06-22T03:58:52;16.50;99.90
792;DHT22;379;49.022;12.148;2023-06-22T04:01:20;16.60;99.90
792;DHT22;379;49.022;12.148;2023-06-22T04:03:47;16.70;99.90
792;DHT22;379;49.022;12.148;2023-06-22T04:06:15;16.80;99.90
792;DHT22;379;49.022;12.148;2023-06-22T04:08:41;16.90;99.90
792;DHT22;379;49.022;12.148;2023-06-22T04:11:08;17.00;99.90
792;DHT22;379;49.022;12.148;2023-06-22T04:13:35;17.10;99.90
792;DHT22;379;49.022;12.148;2023-06-22T04:16:01;17.20;99.90
792;DHT22;379;49.022;12.148;2023-06-22T04:18:30;17.30;99.90
792;DHT22;379;49.022;12.148;2023-06-22T04:20:56;17.40;99.90
792;DHT22;379;49.022;12.148;2023-06-22T04:23:23;17.40;99.90
792;DHT22;379;49.022;12.148;2023-06-22T04:25:50;17.50;99.90
792;DHT22;379;49.022;12.148;2023-06-22T04:28:17;17.70;99.90
792;DHT22;379;49.022;12.148;2023-06-22T04:30:44;18.00;99.90
792;DHT22;379;49.022;12.148;2023-06-22T04:33:13;18.30;99.90
792;DHT22;379;49.022;12.148;2023-06-22T04:35:41;18.50;99.90
792;DHT22;379;49.022;12.148;2023-06-22T04:38:08;18.80;99.90
792;DHT22;379;49.022;12.148;2023-06-22T04:40:36;19.10;99.90
792;DHT22;379;49.022;12.148;2023-06-22T04:43:02;19.40;99.90
792;DHT22;379;49.022;12.148;2023-06-22T04:45:31;19.60;99.90
792;DHT22;379;49.022;12.148;2023-06-22T04:47:58;19.90;99.90
792;DHT22;379;49.022;12.148;2023-06-22T04:50:25;20.00;99.90
792;DHT22;379;49.022;12.148;2023-06-22T04:52:53;19.90;99.90
792;DHT22;379;49.022;12.148;2023-06-22T04:55:20;19.90;99.90
792;DHT22;379;49.022;12.148;2023-06-22T04:57:47;19.70;99.90
792;DHT22;379;49.022;12.148;2023-06-22T05:00:15;19.50;99.90
792;DHT22;379;49.022;12.148;2023-06-22T05:02:44;19.50;99.90
792;DHT22;379;49.022;12.148;2023-06-22T05:05:11;19.60;99.90
792;DHT22;379;49.022;12.148;2023-06-22T05:10:11;20.00;99.90
792;DHT22;379;49.022;12.148;2023-06-22T05:12:39;20.40;99.90
792;DHT22;379;49.022;12.148;2023-06-22T05:15:07;20.70;99.90
792;DHT22;379;49.022;12.148;2023-06-22T05:17:34;20.80;99.90
792;DHT22;379;49.022;12.148;2023-06-22T05:20:01;20.90;99.90
792;DHT22;379;49.022;12.148;2023-06-22T05:22:31;21.20;99.90
792;DHT22;379;49.022;12.148;2023-06-22T05:24:58;21.40;99.90
792;DHT22;379;49.022;12.148;2023-06-22T05:27:26;21.60;99.90
792;DHT22;379;49.022;12.148;2023-06-22T05:29:54;21.90;99.90
792;DHT22;379;49.022;12.148;2023-06-22T05:32:21;22.40;99.90
792;DHT22;379;49.022;12.148;2023-06-22T05:34:48;22.80;99.90
792;DHT22;379;49.022;12.148;2023-06-22T05:37:14;23.10;99.90
792;DHT22;379;49.022;12.148;2023-06-22T05:39:41;23.60;99.90
792;DHT22;379;49.022;12.148;2023-06-22T05:42:08;23.90;99.90
792;DHT22;379;49.022;12.148;2023-06-22T05:44:36;24.40;99.90
792;DHT22;379;49.022;12.148;2023-06-22T05:47:05;25.10;97.30
792;DHT22;379;49.022;12.148;2023-06-22T05:49:32;25.60;94.60
792;DHT22;379;49.022;12.148;2023-06-22T05:51:58;25.90;92.70
792;DHT22;379;49.022;12.148;2023-06-22T05:54:26;26.20;90.80
792;DHT22;379;49.022;12.148;2023-06-22T05:56:53;26.00;87.90
792;DHT22;379;49.022;12.148;2023-06-22T05:59:20;26.20;88.10
792;DHT22;379;49.022;12.148;2023-06-22T06:01:48;26.50;85.90
792;DHT22;379;49.022;12.148;2023-06-22T06:04:17;26.50;84.70
792;DHT22;379;49.022;12.148;2023-06-22T06:06:43;26.60;82.30
792;DHT22;379;49.022;12.148;2023-06-22T06:09:12;26.50;82.80
792;DHT22;379;49.022;12.148;2023-06-22T06:11:39;26.60;82.90
792;DHT22;379;49.022;12.148;2023-06-22T06:14:05;27.10;81.60
792;DHT22;379;49.022;12.148;2023-06-22T06:16:32;27.60;78.80
792;DHT22;379;49.022;12.148;2023-06-22T06:19:00;28.30;76.90
792;DHT22;379;49.022;12.148;2023-06-22T06:21:27;28.90;75.00
792;DHT22;379;49.022;12.148;2023-06-22T06:23:54;29.50;72.30
792;DHT22;379;49.022;12.148;2023-06-22T06:26:20;30.00;69.80
792;DHT22;379;49.022;12.148;2023-06-22T06:28:55;30.40;68.40
792;DHT22;379;49.022;12.148;2023-06-22T06:31:22;30.80;66.90
792;DHT22;379;49.022;12.148;2023-06-22T06:33:49;31.10;65.00
792;DHT22;379;49.022;12.148;2023-06-22T06:36:17;31.40;64.60
792;DHT22;379;49.022;12.148;2023-06-22T06:38:44;31.70;62.90
792;DHT22;379;49.022;12.148;2023-06-22T06:41:12;32.10;61.50
792;DHT22;379;49.022;12.148;2023-06-22T06:43:39;32.30;60.40
792;DHT22;379;49.022;12.148;2023-06-22T06:46:07;32.40;59.50
792;DHT22;379;49.022;12.148;2023-06-22T06:48:34;32.60;59.10
792;DHT22;379;49.022;12.148;2023-06-22T06:51:01;32.60;58.60
792;DHT22;379;49.022;12.148;2023-06-22T06:53:29;32.30;59.60
792;DHT22;379;49.022;12.148;2023-06-22T06:55:56;32.40;58.20
792;DHT22;379;49.022;12.148;2023-06-22T06:58:23;32.40;58.70
792;DHT22;379;49.022;12.148;2023-06-22T07:00:49;32.60;57.90
792;DHT22;379;49.022;12.148;2023-06-22T07:03:16;32.50;57.20
792;DHT22;379;49.022;12.148;2023-06-22T07:05:43;32.60;57.40
792;DHT22;379;49.022;12.148;2023-06-22T07:08:10;32.90;56.90
792;DHT22;379;49.022;12.148;2023-06-22T07:10:38;32.80;57.40
792;DHT22;379;49.022;12.148;2023-06-22T07:13:04;33.30;56.40
792;DHT22;379;49.022;12.148;2023-06-22T07:15:31;33.70;55.60
792;DHT22;379;49.022;12.148;2023-06-22T07:17:58;34.30;54.80
792;DHT22;379;49.022;12.148;2023-06-22T07:20:24;34.90;53.80
792;DHT22;379;49.022;12.148;2023-06-22T07:22:51;35.30;53.00
792;DHT22;379;49.022;12.148;2023-06-22T07:25:18;35.60;51.80
792;DHT22;379;49.022;12.148;2023-06-22T07:27:57;35.90;50.60
792;DHT22;379;49.022;12.148;2023-06-22T07:30:24;36.00;50.00
792;DHT22;379;49.022;12.148;2023-06-22T07:32:51;36.10;49.50
792;DHT22;379;49.022;12.148;2023-06-22T07:35:17;36.30;48.90
792;DHT22;379;49.022;12.148;2023-06-22T07:37:44;36.40;48.20
792;DHT22;379;49.022;12.148;2023-06-22T07:40:12;36.40;46.90
792;DHT22;379;49.022;12.148;2023-06-22T07:42:38;36.40;46.40
792;DHT22;379;49.022;12.148;2023-06-22T07:45:07;36.30;46.80
792;DHT22;379;49.022;12.148;2023-06-22T07:47:34;36.60;45.90
792;DHT22;379;49.022;12.148;2023-06-22T07:50:02;36.70;45.70
792;DHT22;379;49.022;12.148;2023-06-22T07:52:29;36.70;40.90
792;DHT22;379;49.022;12.148;2023-06-22T07:54:56;36.50;39.80
792;DHT22;379;49.022;12.148;2023-06-22T07:57:23;36.10;40.70
792;DHT22;379;49.022;12.148;2023-06-22T07:59:57;36.00;43.30
792;DHT22;379;49.022;12.148;2023-06-22T08:02:25;35.80;41.80
792;DHT22;379;49.022;12.148;2023-06-22T08:04:52;35.70;43.50
792;DHT22;379;49.022;12.148;2023-06-22T08:07:19;35.60;44.80
792;DHT22;379;49.022;12.148;2023-06-22T08:09:46;35.50;43.80
792;DHT22;379;49.022;12.148;2023-06-22T08:12:14;35.70;44.30
792;DHT22;379;49.022;12.148;2023-06-22T08:14:42;35.80;44.10
792;DHT22;379;49.022;12.148;2023-06-22T08:17:08;35.80;43.70
792;DHT22;379;49.022;12.148;2023-06-22T08:19:37;35.70;44.00
792;DHT22;379;49.022;12.148;2023-06-22T08:22:04;35.50;45.90
792;DHT22;379;49.022;12.148;2023-06-22T08:24:31;35.20;45.70
792;DHT22;379;49.022;12.148;2023-06-22T08:26:57;34.80;46.90
792;DHT22;379;49.022;12.148;2023-06-22T08:29:24;34.30;48.00
792;DHT22;379;49.022;12.148;2023-06-22T08:31:51;34.00;46.90
792;DHT22;379;49.022;12.148;2023-06-22T08:34:18;34.00;45.30
792;DHT22;379;49.022;12.148;2023-06-22T08:36:53;33.80;46.40
792;DHT22;379;49.022;12.148;2023-06-22T08:39:20;33.60;46.30
792;DHT22;379;49.022;12.148;2023-06-22T08:41:47;33.30;47.80
792;DHT22;379;49.022;12.148;2023-06-22T08:44:15;33.20;48.80
792;DHT22;379;49.022;12.148;2023-06-22T08:46:42;33.20;49.30
792;DHT22;379;49.022;12.148;2023-06-22T08:49:08;33.00;49.10
792;DHT22;379;49.022;12.148;2023-06-22T08:51:36;33.00;49.10
792;DHT22;379;49.022;12.148;2023-06-22T08:54:04;32.90;48.20
792;DHT22;379;49.022;12.148;2023-06-22T08:56:31;32.80;47.40
792;DHT22;379;49.022;12.148;2023-06-22T08:58:58;32.60;48.70
792;DHT22;379;49.022;12.148;2023-06-22T09:01:25;32.50;48.50
792;DHT22;379;49.022;12.148;2023-06-22T09:03:52;32.40;48.40
792;DHT22;379;49.022;12.148;2023-06-22T09:06:23;32.30;48.10
792;DHT22;379;49.022;12.148;2023-06-22T09:08:50;32.20;49.20
792;DHT22;379;49.022;12.148;2023-06-22T09:11:18;32.10;49.00
792;DHT22;379;49.022;12.148;2023-06-22T09:13:45;32.00;48.70
792;DHT22;379;49.022;12.148;2023-06-22T09:16:11;31.90;48.60
792;DHT22;379;49.022;12.148;2023-06-22T09:18:38;31.80;50.10
792;DHT22;379;49.022;12.148;2023-06-22T09:21:05;31.80;50.70
792;DHT22;379;49.022;12.148;2023-06-22T09:23:32;31.90;50.00
792;DHT22;379;49.022;12.148;2023-06-22T09:25:59;31.90;49.70
792;DHT22;379;49.022;12.148;2023-06-22T09:28:27;31.80;49.60
792;DHT22;379;49.022;12.148;2023-06-22T09:30:54;31.60;50.40
792;DHT22;379;49.022;12.148;2023-06-22T09:33:24;31.60;51.30
792;DHT22;379;49.022;12.148;2023-06-22T09:35:51;31.50;49.90
792;DHT22;379;49.022;12.148;2023-06-22T09:38:18;31.30;51.00
792;DHT22;379;49.022;12.148;2023-06-22T09:40:44;31.20;51.60
792;DHT22;379;49.022;12.148;2023-06-22T09:43:11;31.00;51.40
792;DHT22;379;49.022;12.148;2023-06-22T09:45:40;30.70;52.40
792;DHT22;379;49.022;12.148;2023-06-22T09:48:06;30.80;53.70
792;DHT22;379;49.022;12.148;2023-06-22T09:50:35;30.90;53.30
792;DHT22;379;49.022;12.148;2023-06-22T09:53:01;31.00;53.20
792;DHT22;379;49.022;12.148;2023-06-22T09:55:28;30.90;52.60
792;DHT22;379;49.022;12.148;2023-06-22T09:57:55;30.80;53.20
792;DHT22;379;49.022;12.148;2023-06-22T10:00:22;30.70;53.40
792;DHT22;379;49.022;12.148;2023-06-22T10:02:50;30.50;54.20
792;DHT22;379;49.022;12.148;2023-06-22T10:05:17;30.50;53.80
792;DHT22;379;49.022;12.148;2023-06-22T10:07:43;30.50;53.80
792;DHT22;379;49.022;12.148;2023-06-22T10:10:10;30.60;53.90
792;DHT22;379;49.022;12.148;2023-06-22T10:12:41;30.60;54.50
792;DHT22;379;49.022;12.148;2023-06-22T10:15:09;30.60;54.00
792;DHT22;379;49.022;12.148;2023-06-22T10:17:36;30.50;53.70
792;DHT22;379;49.022;12.148;2023-06-22T10:20:05;30.50;54.20
792;DHT22;379;49.022;12.148;2023-06-22T10:22:37;30.50;53.90
792;DHT22;379;49.022;12.148;2023-06-22T10:25:04;30.50;54.30
792;DHT22;379;49.022;12.148;2023-06-22T10:27:31;30.50;54.40
792;DHT22;379;49.022;12.148;2023-06-22T10:29:57;30.70;53.20
792;DHT22;379;49.022;12.148;2023-06-22T10:32:24;30.60;53.30
792;DHT22;379;49.022;12.148;2023-06-22T10:34:51;30.60;54.10
792;DHT22;379;49.022;12.148;2023-06-22T10:37:19;30.60;53.50
792;DHT22;379;49.022;12.148;2023-06-22T10:39:46;30.50;54.00
792;DHT22;379;49.022;12.148;2023-06-22T10:42:12;30.40;54.40
792;DHT22;379;49.022;12.148;2023-06-22T10:44:39;30.50;54.30
792;DHT22;379;49.022;12.148;2023-06-22T10:47:08;30.50;53.90
792;DHT22;379;49.022;12.148;2023-06-22T10:49:37;30.50;53.50
792;DHT22;379;49.022;12.148;2023-06-22T10:52:04;30.50;53.90
792;DHT22;379;49.022;12.148;2023-06-22T10:54:32;30.60;53.60
792;DHT22;379;49.022;12.148;2023-06-22T10:56:59;30.70;54.80
792;DHT22;379;49.022;12.148;2023-06-22T10:59:26;30.90;54.10
792;DHT22;379;49.022;12.148;2023-06-22T11:01:54;31.00;53.30
792;DHT22;379;49.022;12.148;2023-06-22T11:04:21;31.20;54.30
792;DHT22;379;49.022;12.148;2023-06-22T11:06:48;31.30;54.80
792;DHT22;379;49.022;12.148;2023-06-22T11:09:15;31.40;54.10
792;DHT22;379;49.022;12.148;2023-06-22T11:11:47;31.50;54.40
792;DHT22;379;49.022;12.148;2023-06-22T11:14:14;31.50;55.80
792;DHT22;379;49.022;12.148;2023-06-22T11:16:41;31.50;53.70
792;DHT22;379;49.022;12.148;2023-06-22T11:19:08;31.60;53.00
792;DHT22;379;49.022;12.148;2023-06-22T11:21:35;31.80;53.40
792;DHT22;379;49.022;12.148;2023-06-22T11:24:02;31.80;53.60
792;DHT22;379;49.022;12.148;2023-06-22T11:26:29;31.90;50.90
792;DHT22;379;49.022;12.148;2023-06-22T11:28:58;32.00;50.40
792;DHT22;379;49.022;12.148;2023-06-22T11:31:25;32.10;50.10
792;DHT22;379;49.022;12.148;2023-06-22T11:33:52;32.10;50.60
792;DHT22;379;49.022;12.148;2023-06-22T11:36:19;32.30;50.50
792;DHT22;379;49.022;12.148;2023-06-22T11:38:45;32.40;50.20
792;DHT22;379;49.022;12.148;2023-06-22T11:41:12;32.50;49.50
792;DHT22;379;49.022;12.148;2023-06-22T11:43:39;32.60;49.20
792;DHT22;379;49.022;12.148;2023-06-22T11:46:07;32.70;49.30
792;DHT22;379;49.022;12.148;2023-06-22T11:48:34;32.70;48.60
792;DHT22;379;49.022;12.148;2023-06-22T11:51:02;32.80;47.80
792;DHT22;379;49.022;12.148;2023-06-22T11:53:28;32.80;48.60
792;DHT22;379;49.022;12.148;2023-06-22T11:55:55;33.00;49.50
792;DHT22;379;49.022;12.148;2023-06-22T11:58:22;33.10;50.10
792;DHT22;379;49.022;12.148;2023-06-22T12:00:49;33.20;49.50
792;DHT22;379;49.022;12.148;2023-06-22T12:03:18;33.20;49.40
792;DHT22;379;49.022;12.148;2023-06-22T12:05:46;33.10;49.90
792;DHT22;379;49.022;12.148;2023-06-22T12:08:13;33.20;50.90
792;DHT22;379;49.022;12.148;2023-06-22T12:10:40;33.20;49.50
792;DHT22;379;49.022;12.148;2023-06-22T12:13:07;33.20;50.10
792;DHT22;379;49.022;12.148;2023-06-22T12:15:33;33.10;50.60
792;DHT22;379;49.022;12.148;2023-06-22T12:18:00;33.00;50.30
792;DHT22;379;49.022;12.148;2023-06-22T12:20:29;33.00;50.10
792;DHT22;379;49.022;12.148;2023-06-22T12:22:55;32.90;52.30
792;DHT22;379;49.022;12.148;2023-06-22T12:25:23;32.80;51.20
792;DHT22;379;49.022;12.148;2023-06-22T12:27:50;32.80;50.80
792;DHT22;379;49.022;12.148;2023-06-22T12:30:17;32.70;50.60
792;DHT22;379;49.022;12.148;2023-06-22T12:32:44;32.60;51.10
792;DHT22;379;49.022;12.148;2023-06-22T12:35:10;32.50;51.60
792;DHT22;379;49.022;12.148;2023-06-22T12:37:40;32.50;51.30
792;DHT22;379;49.022;12.148;2023-06-22T12:40:08;32.50;51.20
792;DHT22;379;49.022;12.148;2023-06-22T12:42:35;32.40;51.10
792;DHT22;379;49.022;12.148;2023-06-22T12:45:02;32.30;52.00
792;DHT22;379;49.022;12.148;2023-06-22T12:47:29;32.20;52.40
792;DHT22;379;49.022;12.148;2023-06-22T12:49:56;32.20;51.90
792;DHT22;379;49.022;12.148;2023-06-22T12:52:23;32.30;52.10
792;DHT22;379;49.022;12.148;2023-06-22T12:54:51;32.30;51.70
792;DHT22;379;49.022;12.148;2023-06-22T12:57:18;32.30;51.50
792;DHT22;379;49.022;12.148;2023-06-22T12:59:45;32.40;51.40
792;DHT22;379;49.022;12.148;2023-06-22T13:02:12;32.40;51.10
792;DHT22;379;49.022;12.148;2023-06-22T13:04:39;32.30;51.10
792;DHT22;379;49.022;12.148;2023-06-22T13:07:05;32.30;51.70
792;DHT22;379;49.022;12.148;2023-06-22T13:09:32;32.30;51.30
792;DHT22;379;49.022;12.148;2023-06-22T13:12:01;32.30;51.90
792;DHT22;379;49.022;12.148;2023-06-22T13:14:28;32.40;51.80
792;DHT22;379;49.022;12.148;2023-06-22T13:16:55;32.40;51.60
792;DHT22;379;49.022;12.148;2023-06-22T13:19:21;32.50;51.20
792;DHT22;379;49.022;12.148;2023-06-22T13:21:48;32.50;50.90
792;DHT22;379;49.022;12.148;2023-06-22T13:24:15;32.60;50.90
792;DHT22;379;49.022;12.148;2023-06-22T13:26:42;32.70;50.20
792;DHT22;379;49.022;12.148;2023-06-22T13:29:10;32.90;49.70
792;DHT22;379;49.022;12.148;2023-06-22T13:31:37;32.90;49.50
792;DHT22;379;49.022;12.148;2023-06-22T13:34:04;32.90;49.50
792;DHT22;379;49.022;12.148;2023-06-22T13:36:30;32.80;49.40
792;DHT22;379;49.022;12.148;2023-06-22T13:38:57;32.80;50.30
792;DHT22;379;49.022;12.148;2023-06-22T13:41:24;32.90;49.80
792;DHT22;379;49.022;12.148;2023-06-22T13:43:51;33.00;49.10
792;DHT22;379;49.022;12.148;2023-06-22T13:46:19;33.40;50.00
792;DHT22;379;49.022;12.148;2023-06-22T13:48:49;33.80;48.20
792;DHT22;379;49.022;12.148;2023-06-22T13:51:16;34.00;49.00
792;DHT22;379;49.022;12.148;2023-06-22T13:53:43;34.00;49.00
792;DHT22;379;49.022;12.148;2023-06-22T13:56:09;34.00;48.20
792;DHT22;379;49.022;12.148;2023-06-22T13:58:36;33.80;48.70
792;DHT22;379;49.022;12.148;2023-06-22T14:01:03;33.70;48.70
792;DHT22;379;49.022;12.148;2023-06-22T14:03:31;33.60;49.70
792;DHT22;379;49.022;12.148;2023-06-22T14:05:57;33.60;49.80
792;DHT22;379;49.022;12.148;2023-06-22T14:08:24;33.70;51.10
792;DHT22;379;49.022;12.148;2023-06-22T14:10:51;33.80;50.90
792;DHT22;379;49.022;12.148;2023-06-22T14:13:19;33.80;50.60
792;DHT22;379;49.022;12.148;2023-06-22T14:15:45;33.90;48.60
792;DHT22;379;49.022;12.148;2023-06-22T14:18:13;34.00;48.70
792;DHT22;379;49.022;12.148;2023-06-22T14:20:42;34.30;47.80
792;DHT22;379;49.022;12.148;2023-06-22T14:23:09;34.30;46.60
792;DHT22;379;49.022;12.148;2023-06-22T14:25:35;34.50;47.60
792;DHT22;379;49.022;12.148;2023-06-22T14:28:02;34.50;47.50
792;DHT22;379;49.022;12.148;2023-06-22T14:30:29;34.60;47.80
792;DHT22;379;49.022;12.148;2023-06-22T14:32:55;34.70;48.10
792;DHT22;379;49.022;12.148;2023-06-22T14:35:22;35.00;48.20
792;DHT22;379;49.022;12.148;2023-06-22T14:37:51;35.20;47.90
792;DHT22;379;49.022;12.148;2023-06-22T14:40:17;35.50;47.50
792;DHT22;379;49.022;12.148;2023-06-22T14:42:44;35.70;47.00
792;DHT22;379;49.022;12.148;2023-06-22T14:45:12;36.00;46.80
792;DHT22;379;49.022;12.148;2023-06-22T14:47:39;36.10;46.70
792;DHT22;379;49.022;12.148;2023-06-22T14:50:06;36.10;47.20
792;DHT22;379;49.022;12.148;2023-06-22T14:52:33;36.00;46.90
792;DHT22;379;49.022;12.148;2023-06-22T14:55:01;35.80;47.30
792;DHT22;379;49.022;12.148;2023-06-22T14:57:27;35.60;47.60
792;DHT22;379;49.022;12.148;2023-06-22T14:59:54;35.50;48.10
792;DHT22;379;49.022;12.148;2023-06-22T15:02:21;35.20;48.00
792;DHT22;379;49.022;12.148;2023-06-22T15:04:48;35.00;47.00
792;DHT22;379;49.022;12.148;2023-06-22T15:07:15;34.90;47.80
792;DHT22;379;49.022;12.148;2023-06-22T15:09:41;34.80;47.10
792;DHT22;379;49.022;12.148;2023-06-22T15:12:12;34.70;46.80
792;DHT22;379;49.022;12.148;2023-06-22T15:14:39;34.60;46.80
792;DHT22;379;49.022;12.148;2023-06-22T15:17:07;34.60;47.10
792;DHT22;379;49.022;12.148;2023-06-22T15:19:35;34.60;47.40
792;DHT22;379;49.022;12.148;2023-06-22T15:22:03;34.60;47.60
792;DHT22;379;49.022;12.148;2023-06-22T15:24:31;34.70;47.90
792;DHT22;379;49.022;12.148;2023-06-22T15:26:58;34.70;47.90
792;DHT22;379;49.022;12.148;2023-06-22T15:29:26;34.60;46.40
792;DHT22;379;49.022;12.148;2023-06-22T15:31:55;34.60;46.30
792;DHT22;379;49.022;12.148;2023-06-22T15:34:22;34.50;45.80
792;DHT22;379;49.022;12.148;2023-06-22T15:36:49;34.30;45.50
792;DHT22;379;49.022;12.148;2023-06-22T15:39:15;34.20;46.80
792;DHT22;379;49.022;12.148;2023-06-22T15:41:43;34.30;47.10
792;DHT22;379;49.022;12.148;2023-06-22T15:44:10;34.30;47.90
792;DHT22;379;49.022;12.148;2023-06-22T15:46:38;34.30;48.00
792;DHT22;379;49.022;12.148;2023-06-22T15:49:04;34.30;48.20
792;DHT22;379;49.022;12.148;2023-06-22T15:51:31;34.20;47.30
792;DHT22;379;49.022;12.148;2023-06-22T15:53:58;34.10;46.60
792;DHT22;379;49.022;12.148;2023-06-22T15:56:25;34.20;47.30
792;DHT22;379;49.022;12.148;2023-06-22T15:58:51;34.20;46.60
792;DHT22;379;49.022;12.148;2023-06-22T16:01:19;34.10;46.90
792;DHT22;379;49.022;12.148;2023-06-22T16:03:49;34.10;47.60
792;DHT22;379;49.022;12.148;2023-06-22T16:06:16;34.10;47.50
792;DHT22;379;49.022;12.148;2023-06-22T16:08:43;34.00;47.80
792;DHT22;379;49.022;12.148;2023-06-22T16:11:10;34.00;48.00
792;DHT22;379;49.022;12.148;2023-06-22T16:13:37;34.00;47.60
792;DHT22;379;49.022;12.148;2023-06-22T16:16:04;34.00;47.90
792;DHT22;379;49.022;12.148;2023-06-22T16:18:31;33.90;47.80
792;DHT22;379;49.022;12.148;2023-06-22T16:20:59;33.90;47.60